createdAt,value
2023-09-17T00:01:33.699Z,15.38
2023-09-17T00:04:02.795Z,15.73
2023-09-17T00:06:30.358Z,14.45
2023-09-17T00:08:57.867Z,14.57
2023-09-17T00:11:24.917Z,15.10
2023-09-17T00:13:52.596Z,15.50
2023-09-17T00:16:20.374Z,14.95
2023-09-17T00:18:47.587Z,14.50
2023-09-17T00:21:14.878Z,15.40
2023-09-17T00:23:46.134Z,15.32
2023-09-17T00:28:44.726Z,15.38
2023-09-17T00:31:11.735Z,16.23
2023-09-17T00:33:41.711Z,15.18
2023-09-17T00:36:08.933Z,15.65
2023-09-17T00:38:37.023Z,15.73
2023-09-17T00:41:04.148Z,17.35
2023-09-17T00:43:31.932Z,18.38
2023-09-17T00:45:59.793Z,18.48
2023-09-17T00:48:28.291Z,17.35
2023-09-17T00:50:58.021Z,16.05
2023-09-17T00:53:28.106Z,16.40
2023-09-17T00:55:56.211Z,16.73
2023-09-17T00:58:24.324Z,15.75
2023-09-17T01:00:53.184Z,16.08
2023-09-17T01:03:20.580Z,17.15
2023-09-17T01:05:49.321Z,15.68
2023-09-17T01:08:16.721Z,16.83
2023-09-17T01:10:44.267Z,14.80
2023-09-17T01:13:12.864Z,17.88
2023-09-17T01:15:40.361Z,17.23
2023-09-17T01:18:12.066Z,17.23
2023-09-17T01:21:04.111Z,17.35
2023-09-17T01:23:39.927Z,17.77
2023-09-17T01:26:18.745Z,16.75
2023-09-17T01:28:46.024Z,16.65
2023-09-17T01:31:13.886Z,17.48
2023-09-17T01:33:41.297Z,16.92
2023-09-17T01:36:18.928Z,17.05
2023-09-17T01:38:52.281Z,17.17
2023-09-17T01:41:20.530Z,18.55
2023-09-17T01:43:48.527Z,18.80
2023-09-17T01:46:18.248Z,16.35
2023-09-17T01:48:47.329Z,17.40
2023-09-17T01:51:15.316Z,16.48
2023-09-17T01:53:43.709Z,18.63
2023-09-17T01:56:13.707Z,18.73
2023-09-17T01:58:40.985Z,17.95
2023-09-17T02:01:08.413Z,19.58
2023-09-17T02:03:35.948Z,17.95
2023-09-17T02:06:05.672Z,18.77
2023-09-17T02:08:32.928Z,19.30
2023-09-17T02:11:00.014Z,19.33
2023-09-17T02:13:27.621Z,18.23
2023-09-17T02:15:55.238Z,19.25
2023-09-17T02:18:22.567Z,20.08
2023-09-17T02:20:49.811Z,18.40
2023-09-17T02:23:18.650Z,18.15
2023-09-17T02:25:47.142Z,20.30
2023-09-17T02:28:14.656Z,19.20
2023-09-17T02:30:42.291Z,18.98
2023-09-17T02:33:11.822Z,17.55
2023-09-17T02:35:39.729Z,19.83
2023-09-17T02:38:07.102Z,17.73
2023-09-17T02:40:34.103Z,18.05
2023-09-17T02:43:03.104Z,18.67
2023-09-17T02:45:30.185Z,19.45
2023-09-17T02:47:58.141Z,18.70
2023-09-17T02:50:29.897Z,18.30
2023-09-17T02:52:57.167Z,20.00
2023-09-17T02:55:24.930Z,19.20
2023-09-17T02:57:52.288Z,18.95
2023-09-17T03:00:24.181Z,20.13
2023-09-17T03:02:56.193Z,20.17
2023-09-17T03:05:24.080Z,19.63
2023-09-17T03:07:53.028Z,21.30
2023-09-17T03:10:21.910Z,20.65
2023-09-17T03:12:51.630Z,19.58
2023-09-17T03:15:20.219Z,21.52
2023-09-17T03:17:48.814Z,19.23
2023-09-17T03:20:19.178Z,20.25
2023-09-17T03:22:48.525Z,18.75
2023-09-17T03:25:16.753Z,19.52
2023-09-17T03:27:46.901Z,19.15
2023-09-17T03:30:14.770Z,18.95
2023-09-17T03:32:53.865Z,18.90
2023-09-17T03:35:28.383Z,18.50
2023-09-17T03:37:55.643Z,18.73
2023-09-17T03:40:23.189Z,18.17
2023-09-17T03:42:51.315Z,17.02
2023-09-17T03:45:19.606Z,19.40
2023-09-17T03:47:49.123Z,19.48
2023-09-17T03:50:21.045Z,19.50
2023-09-17T03:52:58.187Z,19.67
2023-09-17T03:55:26.146Z,19.42
2023-09-17T03:57:57.293Z,20.27
2023-09-17T04:00:26.805Z,20.17
2023-09-17T04:02:54.316Z,19.42
2023-09-17T04:05:26.407Z,20.98
2023-09-17T04:07:54.483Z,20.30
2023-09-17T04:10:25.924Z,20.73
2023-09-17T04:12:52.985Z,22.08
2023-09-17T04:15:23.343Z,21.67
2023-09-17T04:17:54.749Z,21.75
2023-09-17T04:20:22.434Z,20.63
2023-09-17T04:22:52.360Z,19.98
2023-09-17T04:25:23.920Z,20.42
2023-09-17T04:27:55.059Z,20.08
2023-09-17T04:30:25.386Z,20.05
2023-09-17T04:32:56.925Z,19.17
2023-09-17T04:35:25.486Z,19.90
2023-09-17T04:37:53.213Z,20.38
2023-09-17T04:40:31.531Z,20.70
2023-09-17T04:43:05.784Z,20.25
2023-09-17T04:45:39.358Z,20.15
2023-09-17T04:48:23.486Z,20.20
2023-09-17T04:50:50.938Z,19.42
2023-09-17T04:53:18.658Z,20.00
2023-09-17T04:55:48.584Z,19.63
2023-09-17T04:58:17.702Z,20.27
2023-09-17T05:00:48.675Z,18.70
2023-09-17T05:03:19.766Z,15.15
2023-09-17T05:05:47.809Z,14.65
2023-09-17T05:08:18.381Z,15.68
2023-09-17T05:10:47.006Z,15.05
2023-09-17T05:13:14.372Z,16.33
2023-09-17T05:15:41.608Z,16.13
2023-09-17T05:18:11.236Z,16.08
2023-09-17T05:20:45.730Z,14.48
2023-09-17T05:23:13.444Z,16.55
2023-09-17T05:25:40.971Z,17.70
2023-09-17T05:28:10.054Z,16.00
2023-09-17T05:30:37.987Z,16.65
2023-09-17T05:33:06.760Z,13.88
2023-09-17T05:35:35.709Z,15.85
2023-09-17T05:38:04.016Z,17.60
2023-09-17T05:40:31.568Z,17.10
2023-09-17T05:42:59.257Z,14.82
2023-09-17T05:45:27.736Z,18.58
2023-09-17T05:47:55.265Z,16.77
2023-09-17T05:50:24.034Z,16.75
2023-09-17T05:52:51.910Z,15.52
2023-09-17T05:55:20.061Z,16.70
2023-09-17T05:57:47.774Z,17.15
2023-09-17T06:00:16.125Z,15.50
2023-09-17T06:02:43.975Z,13.57
2023-09-17T06:05:16.283Z,13.70
2023-09-17T06:07:44.509Z,15.30
2023-09-17T06:10:13.342Z,16.25
2023-09-17T06:12:40.911Z,13.57
2023-09-17T06:15:08.870Z,15.60
2023-09-17T06:20:07.484Z,17.27
2023-09-17T06:22:35.143Z,17.63
2023-09-17T06:25:04.834Z,19.40
2023-09-17T06:27:32.226Z,22.63
2023-09-17T06:30:00.886Z,21.23
2023-09-17T06:32:29.924Z,14.77
2023-09-17T06:34:57.506Z,15.38
2023-09-17T06:37:29.444Z,15.77
2023-09-17T06:39:58.806Z,14.32
2023-09-17T06:42:26.319Z,12.63
2023-09-17T06:44:53.347Z,11.82
2023-09-17T06:47:21.099Z,12.10
2023-09-17T06:49:48.901Z,11.75
2023-09-17T06:52:18.249Z,11.20
2023-09-17T06:54:46.875Z,11.57
2023-09-17T06:57:13.953Z,11.40
2023-09-17T06:59:41.214Z,11.13
2023-09-17T07:02:08.643Z,11.70
2023-09-17T07:04:35.670Z,10.73
2023-09-17T07:07:03.334Z,9.93
2023-09-17T07:09:30.425Z,9.93
2023-09-17T07:11:57.883Z,8.98
2023-09-17T07:14:25.318Z,9.48
2023-09-17T07:16:52.685Z,8.73
2023-09-17T07:19:20.660Z,9.73
2023-09-17T07:21:47.739Z,8.70
2023-09-17T07:24:15.516Z,9.38
2023-09-17T07:26:43.687Z,8.60
2023-09-17T07:29:10.775Z,8.15
2023-09-17T07:31:38.284Z,7.15
2023-09-17T07:34:05.729Z,8.02
2023-09-17T07:36:33.085Z,8.40
2023-09-17T07:39:00.703Z,7.88
2023-09-17T07:41:27.795Z,7.78
2023-09-17T07:43:57.818Z,8.57
2023-09-17T07:46:25.990Z,8.43
2023-09-17T07:48:53.087Z,8.20
2023-09-17T07:51:20.477Z,8.48
2023-09-17T07:53:48.035Z,8.38
2023-09-17T07:56:18.311Z,8.88
2023-09-17T07:58:47.001Z,9.15
2023-09-17T08:01:15.702Z,7.32
2023-09-17T08:03:43.260Z,8.02
2023-09-17T08:06:12.967Z,7.88
2023-09-17T08:08:40.175Z,8.18
2023-09-17T08:11:08.557Z,7.97
2023-09-17T08:13:35.625Z,9.25
2023-09-17T08:16:03.653Z,8.52
2023-09-17T08:18:36.781Z,9.10
2023-09-17T08:21:05.720Z,9.55
2023-09-17T08:23:32.733Z,7.72
2023-09-17T08:26:02.729Z,8.93
2023-09-17T08:28:30.004Z,8.80
2023-09-17T08:30:57.391Z,8.70
2023-09-17T08:33:24.815Z,9.88
2023-09-17T08:35:52.169Z,8.50
2023-09-17T08:38:20.274Z,7.03
2023-09-17T08:40:49.186Z,7.75
2023-09-17T08:43:18.369Z,8.80
2023-09-17T08:45:45.962Z,8.48
2023-09-17T08:48:15.137Z,10.65
2023-09-17T08:50:43.734Z,19.70
2023-09-17T08:53:14.199Z,28.27
2023-09-17T08:55:41.548Z,6.57
2023-09-17T08:58:13.641Z,5.97
2023-09-17T09:00:46.268Z,6.20
2023-09-17T09:03:18.640Z,5.30
2023-09-17T09:05:48.724Z,4.63
2023-09-17T09:08:16.632Z,4.65
2023-09-17T09:10:43.940Z,4.88
2023-09-17T09:13:14.440Z,4.80
2023-09-17T09:15:42.750Z,4.90
2023-09-17T09:18:10.383Z,5.18
2023-09-17T09:20:39.835Z,4.90
2023-09-17T09:23:08.314Z,5.53
2023-09-17T09:25:36.557Z,5.50
2023-09-17T09:29:02.626Z,5.45
2023-09-17T09:31:31.029Z,5.40
2023-09-17T09:34:01.213Z,5.70
2023-09-17T09:36:29.857Z,5.47
2023-09-17T09:38:59.606Z,5.18
2023-09-17T09:41:30.746Z,5.40
2023-09-17T09:43:58.620Z,5.22
2023-09-17T09:46:28.526Z,5.28
2023-09-17T09:49:04.157Z,4.63
2023-09-17T09:51:32.964Z,4.55
2023-09-17T09:54:00.340Z,4.63
2023-09-17T09:56:29.642Z,5.05
2023-09-17T09:58:58.065Z,5.10
2023-09-17T10:01:27.073Z,4.15
2023-09-17T10:03:59.422Z,4.45
2023-09-17T10:06:27.438Z,4.90
2023-09-17T10:08:57.518Z,4.40
2023-09-17T10:11:25.484Z,4.25
2023-09-17T10:13:56.700Z,5.32
2023-09-17T10:18:53.004Z,4.10
2023-09-17T10:21:20.614Z,4.28
2023-09-17T10:23:49.781Z,5.25
2023-09-17T10:26:22.355Z,3.97
2023-09-17T10:28:51.959Z,4.20
2023-09-17T10:31:20.160Z,4.53
2023-09-17T10:33:49.956Z,4.75
2023-09-17T10:36:17.681Z,4.15
2023-09-17T10:38:47.765Z,4.20
2023-09-17T10:41:15.164Z,4.35
2023-09-17T10:43:45.994Z,4.47
2023-09-17T10:46:14.686Z,3.97
2023-09-17T10:48:43.278Z,4.60
2023-09-17T10:51:11.296Z,4.85
2023-09-17T10:53:39.073Z,4.65
2023-09-17T10:56:10.714Z,5.07
2023-09-17T10:58:45.704Z,4.47
2023-09-17T11:01:22.546Z,4.82
2023-09-17T11:03:57.503Z,4.85
2023-09-17T11:06:25.379Z,4.50
2023-09-17T11:08:57.491Z,4.43
2023-09-17T11:11:26.642Z,5.20
2023-09-17T11:13:54.994Z,4.25
2023-09-17T11:16:25.959Z,4.53
2023-09-17T11:19:12.167Z,4.43
2023-09-17T11:21:43.254Z,4.70
2023-09-17T11:24:14.969Z,4.88
2023-09-17T11:26:44.213Z,4.38
2023-09-17T11:29:12.514Z,5.07
2023-09-17T11:31:51.943Z,4.15
2023-09-17T11:34:19.572Z,4.25
2023-09-17T11:36:48.382Z,4.38
2023-09-17T11:39:17.613Z,3.88
2023-09-17T11:41:55.482Z,4.32
2023-09-17T11:44:23.624Z,4.32
2023-09-17T11:46:51.806Z,4.53
2023-09-17T11:49:20.149Z,4.15
2023-09-17T11:51:49.056Z,3.83
2023-09-17T11:54:24.972Z,4.32
2023-09-17T11:56:55.311Z,4.65
2023-09-17T11:59:26.207Z,4.63
2023-09-17T12:01:55.662Z,4.97
2023-09-17T12:04:31.361Z,4.97
2023-09-17T12:06:59.990Z,5.25
2023-09-17T12:09:48.033Z,4.30
2023-09-17T12:12:24.341Z,5.20
2023-09-17T12:14:51.813Z,4.88
2023-09-17T12:17:19.507Z,5.05
2023-09-17T12:19:58.681Z,5.28
2023-09-17T12:22:37.623Z,4.85
2023-09-17T12:25:27.756Z,4.95
2023-09-17T12:27:54.972Z,4.95
2023-09-17T12:30:22.539Z,5.05
2023-09-17T12:32:49.848Z,4.85
2023-09-17T12:35:17.539Z,4.97
2023-09-17T12:37:44.577Z,4.38
2023-09-17T12:40:14.513Z,4.47
2023-09-17T12:42:41.942Z,5.20
2023-09-17T12:45:10.139Z,4.78
2023-09-17T12:47:42.187Z,4.20
2023-09-17T12:50:10.022Z,4.50
2023-09-17T12:52:37.617Z,4.50
2023-09-17T12:55:05.320Z,4.22
2023-09-17T12:57:32.386Z,4.10
2023-09-17T13:00:00.791Z,3.47
2023-09-17T13:02:30.954Z,4.53
2023-09-17T13:04:59.206Z,4.72
2023-09-17T13:07:29.314Z,3.90
2023-09-17T13:09:59.189Z,4.18
2023-09-17T13:12:30.112Z,4.43
2023-09-17T13:17:30.027Z,3.30
2023-09-17T13:20:03.203Z,3.65
2023-09-17T13:22:33.846Z,3.83
2023-09-17T13:25:09.214Z,3.63
2023-09-17T13:27:36.385Z,2.90
2023-09-17T13:30:03.628Z,3.60
2023-09-17T13:32:33.697Z,3.95
2023-09-17T13:35:01.120Z,3.83
2023-09-17T13:37:28.803Z,3.65
2023-09-17T13:39:56.544Z,3.63
2023-09-17T13:42:27.112Z,3.47
2023-09-17T13:44:57.706Z,3.08
2023-09-17T13:47:24.994Z,3.60
2023-09-17T13:49:52.198Z,3.30
2023-09-17T13:52:19.297Z,3.35
2023-09-17T13:54:47.065Z,3.10
2023-09-17T13:57:14.503Z,3.00
2023-09-17T13:59:41.744Z,3.20
2023-09-17T14:02:09.254Z,3.53
2023-09-17T14:04:36.482Z,3.17
2023-09-17T14:07:05.138Z,3.20
2023-09-17T14:09:32.569Z,3.38
2023-09-17T14:12:00.095Z,3.72
2023-09-17T14:14:27.134Z,2.70
2023-09-17T14:16:54.271Z,3.15
2023-09-17T14:19:21.715Z,3.15
2023-09-17T14:21:49.088Z,3.03
2023-09-17T14:24:16.505Z,2.60
2023-09-17T14:26:45.376Z,3.15
2023-09-17T14:29:19.097Z,2.75
2023-09-17T14:31:46.759Z,2.97
2023-09-17T14:34:17.433Z,3.20
2023-09-17T14:36:53.483Z,2.97
2023-09-17T14:39:20.948Z,2.85
2023-09-17T14:41:56.433Z,3.38
2023-09-17T14:44:28.045Z,3.00
2023-09-17T14:47:00.198Z,3.25
2023-09-17T14:49:27.819Z,3.30
2023-09-17T14:51:55.392Z,3.20
2023-09-17T14:54:23.906Z,3.08
2023-09-17T14:56:54.250Z,3.13
2023-09-17T14:59:22.015Z,3.13
2023-09-17T15:01:59.823Z,2.85
2023-09-17T15:04:29.472Z,3.35
2023-09-17T15:07:35.603Z,4.15
2023-09-17T15:10:03.994Z,3.13
2023-09-17T15:12:31.468Z,3.72
2023-09-17T15:14:58.580Z,3.20
2023-09-17T15:17:27.335Z,3.35
2023-09-17T15:19:54.445Z,3.50
2023-09-17T15:22:21.665Z,3.83
2023-09-17T15:24:48.999Z,3.72
2023-09-17T15:27:15.967Z,3.55
2023-09-17T15:29:42.977Z,4.75
2023-09-17T15:32:11.423Z,4.03
2023-09-17T15:34:41.535Z,3.58
2023-09-17T15:37:08.978Z,3.33
2023-09-17T15:39:36.764Z,3.22
2023-09-17T15:42:19.239Z,2.85
2023-09-17T15:44:46.217Z,3.15
2023-09-17T15:47:13.638Z,3.47
2023-09-17T15:49:42.157Z,2.90
2023-09-17T15:52:09.259Z,3.60
2023-09-17T15:54:39.573Z,2.42
2023-09-17T15:57:07.476Z,3.50
2023-09-17T15:59:34.760Z,2.63
2023-09-17T16:02:01.720Z,3.25
2023-09-17T16:04:29.282Z,2.97
2023-09-17T16:06:57.566Z,3.38
2023-09-17T16:09:24.780Z,3.20
2023-09-17T16:11:56.144Z,3.13
2023-09-17T16:14:23.208Z,3.47
2023-09-17T16:16:54.549Z,3.22
2023-09-17T16:21:55.311Z,2.72
2023-09-17T16:24:22.429Z,3.10
2023-09-17T16:26:50.281Z,2.45
2023-09-17T16:29:17.227Z,2.45
2023-09-17T16:31:44.512Z,2.50
2023-09-17T16:34:11.666Z,3.05
2023-09-17T16:36:41.207Z,2.80
2023-09-17T16:39:08.981Z,3.25
2023-09-17T16:41:36.181Z,3.08
2023-09-17T16:44:04.092Z,3.47
2023-09-17T16:46:31.294Z,3.22
2023-09-17T16:48:58.290Z,2.95
2023-09-17T16:51:25.409Z,3.42
2023-09-17T16:53:55.414Z,2.78
2023-09-17T16:56:22.595Z,2.88
2023-09-17T16:58:49.853Z,3.33
2023-09-17T17:01:18.107Z,3.03
2023-09-17T17:03:45.254Z,3.28
2023-09-17T17:06:14.155Z,3.33
2023-09-17T17:08:41.444Z,2.90
2023-09-17T17:11:08.685Z,3.17
2023-09-17T17:13:36.281Z,3.33
2023-09-17T17:16:03.884Z,3.08
2023-09-17T17:18:31.120Z,3.40
2023-09-17T17:20:58.684Z,2.80
2023-09-17T17:23:25.939Z,3.42
2023-09-17T17:25:53.329Z,3.50
2023-09-17T17:28:20.473Z,3.45
2023-09-17T17:30:47.762Z,4.25
2023-09-17T17:33:15.234Z,3.53
2023-09-17T17:35:42.266Z,4.60
2023-09-17T17:38:09.453Z,3.60
2023-09-17T17:40:37.226Z,3.00
2023-09-17T17:43:04.437Z,3.42
2023-09-17T17:45:33.948Z,3.20
2023-09-17T17:48:01.770Z,3.30
2023-09-17T17:50:28.869Z,3.42
2023-09-17T17:52:55.992Z,3.15
2023-09-17T17:55:23.238Z,3.00
2023-09-17T17:57:53.526Z,3.50
2023-09-17T18:00:20.814Z,3.10
2023-09-17T18:02:48.914Z,3.75
2023-09-17T18:05:16.164Z,3.05
2023-09-17T18:07:45.323Z,2.70
2023-09-17T18:10:12.747Z,2.90
2023-09-17T18:12:42.948Z,2.92
2023-09-17T18:15:11.028Z,3.78
2023-09-17T18:17:39.242Z,2.92
2023-09-17T18:20:07.432Z,3.03
2023-09-17T18:22:34.983Z,2.63
2023-09-17T18:25:02.184Z,3.05
2023-09-17T18:27:29.260Z,2.65
2023-09-17T18:29:56.437Z,3.20
2023-09-17T18:32:25.436Z,2.42
2023-09-17T18:34:54.861Z,2.80
2023-09-17T18:37:22.273Z,3.15
2023-09-17T18:39:49.734Z,2.60
2023-09-17T18:42:17.645Z,2.65
2023-09-17T18:44:44.665Z,3.00
2023-09-17T18:47:11.792Z,2.65
2023-09-17T18:49:38.963Z,2.58
2023-09-17T18:52:05.912Z,2.67
2023-09-17T18:54:33.138Z,3.20
2023-09-17T18:57:04.181Z,2.58
2023-09-17T18:59:31.345Z,1.92
2023-09-17T19:01:58.549Z,2.83
2023-09-17T19:04:25.679Z,2.03
2023-09-17T19:06:52.826Z,2.47
2023-09-17T19:09:19.888Z,2.60
2023-09-17T19:11:46.964Z,2.08
2023-09-17T19:14:14.023Z,2.38
2023-09-17T19:16:41.286Z,3.13
2023-09-17T19:19:08.445Z,2.75
2023-09-17T19:21:37.091Z,2.40
2023-09-17T19:24:05.502Z,2.92
2023-09-17T19:26:32.680Z,2.40
2023-09-17T19:29:04.491Z,2.78
2023-09-17T19:31:32.087Z,2.90
2023-09-17T19:34:02.190Z,2.33
2023-09-17T19:36:29.126Z,2.88
2023-09-17T19:38:57.393Z,2.45
2023-09-17T19:41:25.816Z,2.35
2023-09-17T19:44:22.581Z,2.83
2023-09-17T19:47:15.208Z,2.67
2023-09-17T19:49:45.162Z,2.72
2023-09-17T19:52:12.863Z,2.40
2023-09-17T19:54:49.837Z,3.10
2023-09-17T19:57:18.209Z,3.47
2023-09-17T19:59:45.253Z,2.90
2023-09-17T20:02:12.650Z,2.80
2023-09-17T20:04:39.806Z,2.65
2023-09-17T20:07:07.008Z,2.90
2023-09-17T20:09:34.214Z,2.80
2023-09-17T20:12:01.657Z,2.80
2023-09-17T20:14:28.692Z,3.17
2023-09-17T20:16:55.834Z,2.60
2023-09-17T20:19:23.170Z,2.92
2023-09-17T20:21:51.470Z,2.63
2023-09-17T20:24:18.607Z,3.13
2023-09-17T20:26:46.208Z,2.95
2023-09-17T20:29:13.621Z,2.55
2023-09-17T20:31:54.680Z,2.67
2023-09-17T20:34:23.693Z,2.50
2023-09-17T20:36:51.342Z,2.47
2023-09-17T20:39:18.247Z,2.97
2023-09-17T20:41:57.565Z,2.72
2023-09-17T20:47:09.538Z,3.53
2023-09-17T20:49:36.612Z,3.20
2023-09-17T20:52:03.878Z,2.95
2023-09-17T20:54:31.025Z,3.05
2023-09-17T20:56:59.111Z,3.05
2023-09-17T20:59:26.068Z,2.88
2023-09-17T21:01:54.560Z,3.20
2023-09-17T21:04:21.706Z,3.03
2023-09-17T21:06:48.826Z,2.97
2023-09-17T21:09:27.513Z,3.35
2023-09-17T21:11:55.133Z,3.70
2023-09-17T21:14:22.873Z,3.30
2023-09-17T21:16:50.015Z,3.58
2023-09-17T21:19:17.374Z,3.53
2023-09-17T21:21:44.278Z,3.42
2023-09-17T21:24:11.336Z,3.63
2023-09-17T21:26:38.415Z,3.70
2023-09-17T21:29:05.684Z,3.88
2023-09-17T21:31:32.933Z,4.20
2023-09-17T21:34:00.127Z,3.88
2023-09-17T21:36:27.236Z,4.15
2023-09-17T21:38:54.805Z,3.58
2023-09-17T21:41:22.165Z,4.15
2023-09-17T21:43:49.323Z,4.35
2023-09-17T21:46:16.586Z,4.30
2023-09-17T21:48:43.709Z,4.82
2023-09-17T21:51:10.756Z,4.95
2023-09-17T21:53:37.688Z,4.22
2023-09-17T21:56:05.173Z,4.18
2023-09-17T21:58:32.380Z,4.65
2023-09-17T22:00:59.738Z,5.00
2023-09-17T22:03:26.859Z,4.60
2023-09-17T22:05:53.957Z,4.45
2023-09-17T22:08:22.272Z,4.47
2023-09-17T22:10:49.645Z,4.28
2023-09-17T22:13:16.887Z,4.43
2023-09-17T22:15:44.757Z,5.15
2023-09-17T22:18:11.875Z,4.70
2023-09-17T22:20:39.144Z,4.05
2023-09-17T22:23:07.022Z,4.95
2023-09-17T22:25:34.294Z,4.80
2023-09-17T22:28:02.114Z,4.18
2023-09-17T22:30:29.103Z,5.03
2023-09-17T22:32:56.239Z,4.68
2023-09-17T22:35:23.474Z,4.78
2023-09-17T22:37:50.994Z,5.22
2023-09-17T22:40:18.199Z,4.47
2023-09-17T22:42:45.660Z,4.47
2023-09-17T22:45:13.019Z,4.90
2023-09-17T22:47:40.236Z,5.10
2023-09-17T22:50:08.073Z,4.90
2023-09-17T22:52:35.439Z,6.05
2023-09-17T22:55:02.615Z,4.35
2023-09-17T22:57:29.858Z,5.22
2023-09-17T22:59:56.884Z,4.65
2023-09-17T23:02:24.324Z,5.20
2023-09-17T23:04:51.521Z,4.63
2023-09-17T23:07:18.706Z,4.47
2023-09-17T23:09:45.682Z,4.90
2023-09-17T23:12:14.803Z,4.53
2023-09-17T23:14:41.802Z,4.90
2023-09-17T23:17:08.937Z,4.10
2023-09-17T23:19:36.962Z,4.63
2023-09-17T23:22:07.033Z,5.25
2023-09-17T23:24:34.117Z,5.00
2023-09-17T23:27:01.188Z,4.60
2023-09-17T23:29:29.297Z,4.50
2023-09-17T23:31:56.840Z,5.38
2023-09-17T23:34:25.731Z,4.85
2023-09-17T23:36:52.933Z,5.15
2023-09-17T23:39:19.857Z,4.60
2023-09-17T23:41:46.864Z,4.90
2023-09-17T23:44:14.077Z,4.63
2023-09-17T23:46:41.167Z,4.90
2023-09-17T23:49:08.443Z,4.78
2023-09-17T23:51:35.334Z,4.95
2023-09-17T23:54:02.296Z,4.05
2023-09-17T23:56:29.587Z,4.35
2023-09-17T23:58:56.690Z,4.60
